Latest Coastal Weather Observations for Wynyard

IDT60701

Issued at 5:25 pm EST Thursday 31 July 2014 (issued every 10 minutes, with the page automatically refreshed every 10 minutes)

About coastal observations | Map of coastal stations | Coastal observations for TAS | Marine services | Other Formats
Station Details ID: 091107 Name: WYNYARD AIRPORT Lat: -41.00 Lon: 145.73 Height: 12.0 m
Data from the previous 72 hours. | See also: Recent months at Wynyard
Date/Time
EST
Temp

°C
Wind Pressure Rain
since 9am
mm
Weather Cloud Vis
km
Sea
Height
m
Swell
Dir
 
Speed
knots
Gust
knots
hPa Trend Height
m
Period
s
Dir
31/05:17pm 8.4 WNW 16 26 987.3 - 4.6 - Partly cloudy 10 - - - -
31/05:00pm 8.0 WNW 17 23 986.8 - 4.6 - Partly cloudy 10 - - - -
31/04:30pm 7.8 W 22 30 986.9 - 4.6 - Partly cloudy 10 - - - -
31/04:10pm 8.8 W 29 40 986.6 - 4.6 - Partly cloudy 10 - - - -
31/04:01pm 9.1 W 17 29 986.1 - 4.6 - Partly cloudy 10 - - - -
31/04:00pm 9.2 W 17 25 986.1 - 4.6 - Partly cloudy 10 - - - -
31/03:34pm 9.2 WNW 20 30 986.1 - 4.6 - Partly cloudy 10 - - - -
31/03:30pm 9.1 WNW 20 29 986.2 - 4.6 - Partly cloudy 10 - - - -
31/03:25pm 9.0 WNW 18 28 986.1 - 4.6 - Partly cloudy 10 - - - -
31/03:00pm 7.9 WNW 18 27 986.8 - 4.6 Rain Cloudy 9 - - - -
31/02:34pm 8.0 W 17 28 986.3 - 4.0 - Partly cloudy 7 - - - -
31/02:30pm 8.4 WNW 16 24 986.6 - 4.0 - Partly cloudy 6 - - - -
31/02:00pm 8.9 W 14 20 986.3 - 3.2 - Partly cloudy 10 - - - -
31/01:30pm 9.0 W 14 21 985.8 - 3.2 - Partly cloudy 10 - - - -
31/01:20pm 8.9 W 15 26 986.0 - 3.0 - Partly cloudy 10 - - - -
31/01:00pm 9.1 W 13 18 985.8 - 2.8 - Partly cloudy 10 - - - -
31/12:30pm 9.5 W 25 37 984.7 - 2.2 - Partly cloudy 10 - - - -
31/12:28pm 9.5 W 25 37 984.7 - 2.2 - Partly cloudy 9 - - - -
31/12:22pm 9.7 W 27 37 984.8 - 2.0 - Partly cloudy 7 - - - -
31/12:14pm 10.5 W 26 33 984.4 - 2.0 - Partly cloudy 3 - - - -
31/12:08pm 10.7 WNW 29 36 984.3 - 1.8 - Partly cloudy 3 - - - -
31/12:00pm 13.0 NNW 29 39 983.6 - 0.4 Rain Cloudy 5 - - - -
31/11:40am 12.9 NNW 28 43 984.6 - 0.2 - Partly cloudy 5 - - - -
31/11:30am 13.4 NNW 28 42 985.1 - 0.2 - Partly cloudy 10 - - - -
31/11:00am 13.3 NNW 26 39 986.3 - 0.2 - Partly cloudy 7 - - - -
31/10:30am 13.6 NNW 24 35 987.1 - 0.2 - Partly cloudy 10 - - - -
31/10:00am 13.6 NNW 26 41 987.9 - 0.2 - Partly cloudy 10 - - - -
31/09:30am 13.8 NW 28 43 988.2 - 0.2 - Partly cloudy 9 - - - -
31/09:00am 13.6 NW 25 37 989.0 - 21.6 Recent precip. Cloudy 9 - - - -
31/08:44am 13.0 NW 26 43 989.4 - 21.6 - Partly cloudy 5 - - - -
31/08:31am 13.1 NW 24 43 989.5 - 21.4 - Partly cloudy 7 - - - -
31/08:30am 13.0 NW 24 43 989.5 - 21.4 - Partly cloudy 7 - - - -
31/08:12am 12.8 NW 22 34 989.6 - 20.8 - Partly cloudy 5 - - - -
31/08:08am 12.8 NNW 22 32 989.8 - 20.8 - Partly cloudy 7 - - - -
31/08:00am 13.5 NNW 23 31 990.0 - 20.6 - Partly cloudy 10 - - - -
31/07:30am 13.3 NW 22 35 990.9 - 20.6 - Partly cloudy 9 - - - -
31/07:00am 13.2 NW 24 36 991.0 - 20.6 - Partly cloudy 10 - - - -
31/06:30am 13.2 NW 23 33 991.3 - 20.6 - Partly cloudy 10 - - - -
31/06:00am 13.0 NW 21 35 991.6 - 20.6 Recent precip. Cloudy 10 - - - -
31/05:30am 12.5 NW 22 32 992.3 - 20.6 - Partly cloudy 8 - - - -
31/05:29am 12.6 NW 23 32 992.3 - 20.6 - Partly cloudy 8 - - - -
31/05:25am 12.5 NW 23 37 992.3 - 20.6 - Partly cloudy 9 - - - -
31/05:06am 12.4 NW 24 35 992.8 - 20.6 - Partly cloudy 2 - - - -
31/05:00am 12.5 NW 23 35 992.7 - 19.6 - Partly cloudy 5 - - - -
31/04:30am 13.2 NW 22 32 993.6 - 18.6 - Partly cloudy 9 - - - -
31/04:00am 13.2 NW 24 35 993.7 - 18.6 - Partly cloudy 9 - - - -
31/03:45am 13.1 NW 24 37 993.7 - 18.6 - Partly cloudy 9 - - - -
31/03:30am 13.0 NW 24 36 993.9 - 18.6 - Partly cloudy 3 - - - -
31/03:29am 12.9 NW 23 33 993.9 - 18.6 - Partly cloudy 3 - - - -
31/03:25am 12.9 NW 22 33 993.9 - 18.4 - Partly cloudy 3 - - - -
31/03:24am 13.0 NW 21 29 994.1 - 18.0 - Partly cloudy 4 - - - -
31/03:08am 13.1 NW 21 31 994.3 - 16.6 - Partly cloudy 10 - - - -
31/03:00am 13.0 WNW 22 35 994.5 - 16.6 Recent precip. Cloudy 10 - - - -
31/02:46am 12.2 WNW 20 31 994.5 - 15.6 - Partly cloudy 2 - - - -
31/02:33am 12.4 W 21 30 994.9 - 13.2 - Partly cloudy 5 - - - -
31/02:32am 12.4 W 22 30 994.9 - 13.2 - Partly cloudy 6 - - - -
31/02:30am 12.6 W 21 30 994.9 - 12.8 - Partly cloudy 9 - - - -
31/02:13am 12.2 WNW 19 31 995.1 - 12.6 - Partly cloudy 3 - - - -
31/02:00am 12.2 WNW 19 28 995.4 - 12.2 - Partly cloudy 5 - - - -
31/01:41am 12.2 WNW 18 24 995.7 - 12.2 - Partly cloudy 5 - - - -
31/01:30am 12.4 WNW 18 27 995.9 - 11.6 - Partly cloudy 7 - - - -
31/01:26am 12.5 WNW 19 30 995.8 - 11.6 - Partly cloudy 7 - - - -
31/01:17am 12.5 WNW 18 28 995.9 - 11.4 - Partly cloudy 8 - - - -
31/01:00am 12.5 WNW 20 30 996.0 - 10.8 - Partly cloudy 3 - - - -
31/12:30am 12.5 NW 19 31 996.3 - 9.0 - Partly cloudy 6 - - - -
31/12:00am 12.4 NW 26 37 997.1 - 8.2 Rain Cloudy 2 - - - -
 
Date/Time
EST
Temp

°C
Wind Pressure Rain
since 9am
mm
Weather Cloud Vis
km
Sea
Height
m
Swell
Dir
 
Speed
knots
Gust
knots
hPa Trend Height
m
Period
s
Dir
30/11:33pm 12.5 NW 19 29 997.5 - 6.6 - Partly cloudy 3 - - - -
30/11:30pm 12.5 NW 19 29 997.5 - 6.6 - Partly cloudy 3 - - - -
30/11:00pm 12.9 NW 21 31 997.8 - 5.4 - Partly cloudy 5 - - - -
30/10:53pm 13.1 NW 21 31 997.7 - 5.2 - Partly cloudy 5 - - - -
30/10:50pm 13.2 NW 22 30 997.8 - 5.2 - Partly cloudy 5 - - - -
30/10:33pm 13.3 WNW 17 29 998.2 - 5.0 - Partly cloudy 8 - - - -
30/10:30pm 13.2 WNW 17 23 998.1 - 5.0 - Partly cloudy 8 - - - -
30/10:00pm 13.1 NW 18 25 998.5 - 5.0 - Partly cloudy 9 - - - -
30/09:31pm 12.5 WNW 17 23 999.0 - 5.0 - Partly cloudy 10 - - - -
30/09:30pm 12.5 WNW 17 23 999.1 - 5.0 - Partly cloudy 10 - - - -
30/09:15pm 12.4 WNW 19 30 999.2 - 5.0 - Partly cloudy 4 - - - -
30/09:11pm 12.8 NW 18 25 999.6 - 4.4 - Partly cloudy 5 - - - -
30/09:00pm 13.2 WNW 18 31 999.1 - 4.2 - Cloudy 10 - - - -
30/08:55pm 13.2 WNW 17 31 999.1 - 4.2 - Partly cloudy 10 - - - -
30/08:30pm 12.8 WNW 14 19 999.3 - 4.2 - Partly cloudy 10 - - - -
30/08:00pm 12.7 WNW 17 23 999.9 - 4.2 - Partly cloudy 9 - - - -
30/07:35pm 12.8 WNW 16 26 999.8 - 4.0 - Partly cloudy 10 - - - -
30/07:30pm 12.5 WNW 17 25 999.9 - 4.0 - Partly cloudy 10 - - - -
30/07:11pm 12.5 WNW 23 34 999.7 - 4.0 - Partly cloudy 10 - - - -
30/07:00pm 12.6 WNW 29 45 999.9 - 4.0 - Partly cloudy 5 - - - -
30/06:53pm 12.8 WNW 31 45 999.9 - 4.0 - Partly cloudy 4 - - - -
30/06:51pm 12.7 NW 18 40 1000.0 - 4.0 - Partly cloudy 4 - - - -
30/06:50pm 12.8 NW 18 29 999.9 - 3.6 - Partly cloudy 4 - - - -
30/06:45pm 12.9 NW 15 24 999.6 - 3.2 - Partly cloudy 5 - - - -
30/06:41pm 13.0 NW 15 24 999.6 - 3.2 - Partly cloudy 8 - - - -
30/06:30pm 12.7 WNW 16 24 999.8 - 3.0 - Partly cloudy 5 - - - -
30/06:19pm 12.9 WNW 18 28 999.9 - 2.8 - Partly cloudy 5 - - - -
30/06:00pm 13.6 WNW 17 23 1000.0 - 2.2 - Mostly cloudy 10 - - - -
30/05:30pm 13.2 WNW 20 32 1000.0 - 2.2 - Partly cloudy 10 - - - -
30/05:00pm 13.8 WNW 23 33 999.9 - 2.2 - Partly cloudy 10 - - - -
30/04:30pm 14.1 WNW 21 35 999.6 - 2.2 - Partly cloudy 10 - - - -
30/04:00pm 13.5 WNW 22 36 999.7 - 2.2 - Partly cloudy 10 - - - -
30/03:58pm 13.6 WNW 22 36 999.5 - 2.2 - Partly cloudy 10 - - - -
30/03:54pm 13.4 WNW 20 28 999.6 - 2.2 - Partly cloudy 10 - - - -
30/03:38pm 13.3 WNW 20 27 999.5 - 2.0 - Partly cloudy 5 - - - -
30/03:31pm 14.1 WNW 20 30 999.5 - 1.8 - Partly cloudy 10 - - - -
30/03:30pm 14.1 WNW 21 30 999.5 - 1.8 - Partly cloudy 10 - - - -
30/03:01pm 13.9 WNW 19 29 999.8 - 1.8 - Partly cloudy 10 - - - -
30/03:00pm 13.8 WNW 20 29 999.9 - 1.8 Recent precip. Mostly cloudy 10 - - - -
30/02:48pm 14.1 WNW 19 29 999.7 - 1.8 - Partly cloudy 10 - - - -
30/02:46pm 14.1 WNW 18 27 999.8 - 1.8 - Partly cloudy 10 - - - -
30/02:31pm 13.2 WNW 20 28 999.9 - 1.8 - Partly cloudy 5 - - - -
30/02:30pm 13.3 WNW 19 27 999.9 - 1.8 - Partly cloudy 6 - - - -
30/02:00pm 14.0 WNW 23 36 1000.2 - 1.2 - Partly cloudy 10 - - - -
30/01:59pm 13.8 WNW 22 35 1000.1 - 1.2 - Partly cloudy 10 - - - -
30/01:54pm 13.8 WNW 21 27 1000.2 - 1.2 - Partly cloudy 10 - - - -
30/01:34pm 12.8 WNW 17 27 1000.4 - 1.2 - Partly cloudy 4 - - - -
30/01:30pm 12.8 WNW 16 23 1000.5 - 1.2 - Partly cloudy 4 - - - -
30/01:26pm 12.8 WNW 16 24 1000.5 - 1.0 - Partly cloudy 5 - - - -
30/01:21pm 13.0 WNW 17 25 1000.4 - 0.8 - Partly cloudy 9 - - - -
30/01:09pm 13.2 WNW 19 30 1000.5 - 0.8 - Partly cloudy 5 - - - -
30/01:07pm 13.0 WNW 19 30 1000.6 - 0.8 - Partly cloudy 7 - - - -
30/01:01pm 12.9 WNW 17 27 1000.6 - 0.8 - Partly cloudy 7 - - - -
30/01:00pm 12.7 WNW 18 27 1000.7 - 0.8 - Partly cloudy 7 - - - -
30/12:32pm 12.9 NW 21 27 1001.2 - 0.8 - Partly cloudy 5 - - - -
30/12:30pm 13.3 NW 21 27 1001.2 - 0.8 - Partly cloudy 7 - - - -
30/12:09pm 13.8 WNW 19 33 1001.6 - 0.8 - Partly cloudy 10 - - - -
30/12:00pm 13.4 WNW 18 25 1002.0 - 0.8 Recent precip. Cloudy 10 - - - -
30/11:30am 12.9 WNW 19 27 1002.5 - 0.8 - Partly cloudy 10 - - - -
30/11:02am 12.5 WNW 17 29 1003.0 - 0.6 - Partly cloudy 8 - - - -
30/11:00am 12.7 WNW 16 22 1003.1 - 0.6 - Partly cloudy 9 - - - -
30/10:35am 12.4 WNW 17 27 1003.0 - 0.4 - Partly cloudy 6 - - - -
30/10:30am 12.6 WNW 19 27 1003.2 - 0.4 - Partly cloudy 7 - - - -
30/10:00am 12.6 WNW 16 22 1003.1 - 0.0 - Partly cloudy 8 - - - -
30/09:30am 12.3 WNW 12 17 1003.2 - 0.0 - Partly cloudy 10 - - - -
30/09:10am 11.9 WNW 15 22 1003.2 - 0.0 - Partly cloudy 10 - - - -
30/09:00am 11.5 W 17 24 1003.3 - 6.4 Rain Cloudy 5 - - - -
30/08:54am 11.7 WNW 17 24 1003.2 - 6.4 - Partly cloudy 5 - - - -
30/08:30am 11.8 WNW 11 16 1003.0 - 6.2 - Partly cloudy 10 - - - -
30/08:00am 11.4 WNW 16 21 1003.2 - 6.2 - Partly cloudy 10 - - - -
30/07:57am 11.4 WNW 17 21 1003.1 - 6.2 - Partly cloudy 7 - - - -
30/07:30am 10.1 WNW 7 11 1002.9 - 6.2 - Partly cloudy 9 - - - -
30/07:00am 10.4 WNW 7 11 1002.7 - 6.2 - Partly cloudy 9 - - - -
30/06:30am 9.8 WNW 6 8 1002.8 - 6.2 - Partly cloudy 10 - - - -
30/06:00am 9.9 WNW 9 13 1002.9 - 6.2 - Cloudy 10 - - - -
30/05:30am 10.2 WNW 9 12 1002.4 - 6.2 - Partly cloudy 9 - - - -
30/05:00am 10.1 W 10 14 1002.4 - 6.2 - Partly cloudy 9 - - - -
30/04:30am 10.4 W 14 19 1002.2 - 6.2 - Partly cloudy 10 - - - -
30/04:09am 10.8 W 17 27 1001.9 - 6.2 - Partly cloudy 10 - - - -
30/04:00am 10.7 W 17 24 1002.0 - 6.2 - Partly cloudy 10 - - - -
30/03:30am 10.9 W 17 25 1001.7 - 6.2 - Partly cloudy 10 - - - -
30/03:00am 11.0 W 19 26 1001.5 - 6.2 - Cloudy 10 - - - -
30/02:30am 11.5 W 20 29 1001.2 - 6.2 - Partly cloudy 10 - - - -
30/02:00am 11.6 W 23 35 1001.0 - 6.2 - Partly cloudy 10 - - - -
30/01:30am 11.8 W 21 31 1000.4 - 6.2 - Partly cloudy 10 - - - -
30/01:03am 11.9 W 19 30 999.9 - 6.2 - Partly cloudy 9 - - - -
30/01:00am 11.8 W 19 27 1000.0 - 6.2 - Partly cloudy 9 - - - -
30/12:30am 12.1 W 21 31 999.5 - 6.2 - Partly cloudy 10 - - - -
30/12:00am 12.1 W 25 37 999.1 - 6.2 - Mostly cloudy 10 - - - -
 
Date/Time
EST
Temp

°C
Wind Pressure Rain
since 9am
mm
Weather Cloud Vis
km
Sea
Height
m
Swell
Dir
 
Speed
knots
Gust
knots
hPa Trend Height
m
Period
s
Dir
29/11:30pm 11.8 W 30 42 998.5 - 6.2 - Partly cloudy 10 - - - -
29/11:29pm 11.9 W 32 42 998.4 - 6.2 - Partly cloudy 10 - - - -
29/11:28pm 12.2 W 34 42 998.3 - 6.2 - Partly cloudy 10 - - - -
29/11:00pm 11.4 W 23 35 998.5 - 6.2 - Partly cloudy 9 - - - -
29/10:30pm 11.7 W 23 35 998.1 - 6.0 - Partly cloudy 9 - - - -
29/10:08pm 11.2 W 17 27 998.3 - 6.0 - Partly cloudy 9 - - - -
29/10:02pm 11.2 W 17 23 998.1 - 6.0 - Partly cloudy 8 - - - -
29/10:00pm 11.1 W 17 23 998.0 - 6.0 - Partly cloudy 8 - - - -
29/09:43pm 10.7 WSW 17 29 998.0 - 6.0 - Partly cloudy 4 - - - -
29/09:37pm 10.9 W 16 21 998.0 - 5.2 - Partly cloudy 5 - - - -
29/09:34pm 10.9 W 15 21 997.9 - 5.2 - Partly cloudy 7 - - - -
29/09:30pm 11.1 W 17 21 997.7 - 5.0 - Partly cloudy 8 - - - -
29/09:21pm 11.0 W 26 36 997.5 - 5.0 - Partly cloudy 4 - - - -
29/09:14pm 11.3 W 30 36 997.7 - 5.0 - Partly cloudy 5 - - - -
29/09:01pm 12.0 W 20 33 997.3 - 4.4 - Partly cloudy 8 - - - -
29/09:00pm 11.7 W 19 24 997.4 - 4.4 - Cloudy 8 - - - -
29/08:45pm 11.6 W 20 30 997.4 - 4.4 - Partly cloudy 7 - - - -
29/08:44pm 11.7 W 21 30 997.3 - 4.4 - Partly cloudy 7 - - - -
29/08:30pm 12.1 WNW 25 37 996.7 - 4.4 - Partly cloudy 5 - - - -
29/08:27pm 11.9 WNW 23 33 996.8 - 4.4 - Partly cloudy 5 - - - -
29/08:00pm 12.3 WNW 24 35 996.3 - 4.4 - Partly cloudy 9 - - - -
29/07:30pm 12.0 W 25 39 996.3 - 4.4 - Partly cloudy 9 - - - -
29/07:10pm 12.1 WNW 24 37 995.8 - 4.4 - Partly cloudy 7 - - - -
29/07:00pm 12.0 WNW 19 31 995.6 - 4.4 - Partly cloudy 5 - - - -
29/06:48pm 11.9 W 18 23 995.3 - 4.2 - Partly cloudy 7 - - - -
29/06:30pm 12.4 W 30 42 995.1 - 3.2 - Partly cloudy 5 - - - -
29/06:07pm 12.8 W 27 39 994.8 - 3.0 - Partly cloudy 10 - - - -
29/06:00pm 12.9 W 31 43 994.7 - 3.0 - Cloudy 8 - - - -
29/05:52pm 12.8 WNW 30 41 994.3 - 3.0 - Partly cloudy 5 - - - -
29/05:30pm 13.7 WNW 27 38 993.4 - 3.0 - Partly cloudy 10 - - - -
29/05:00pm 13.5 WNW 30 44 993.4 - 3.0 - Partly cloudy 10 - - - -
29/04:55pm 13.2 W 29 39 993.6 - 3.0 - Partly cloudy 8 - - - -
29/04:51pm 13.3 W 32 37 993.3 - 3.0 - Partly cloudy 7 - - - -
29/04:30pm 13.7 WNW 22 35 993.3 - 2.8 - Partly cloudy 9 - - - -
29/04:00pm 13.9 WNW 24 36 993.5 - 2.8 - Partly cloudy 10 - - - -
29/03:30pm 13.4 WNW 25 36 993.4 - 2.8 - Partly cloudy 6 - - - -
29/03:21pm 13.4 WNW 25 36 993.3 - 2.4 - Partly cloudy 6 - - - -
29/03:01pm 13.1 WNW 21 31 993.6 - 2.4 - Partly cloudy 4 - - - -
29/03:00pm 13.1 WNW 21 29 993.7 - 2.4 Recent precip. Cloudy 4 - - - -
29/02:48pm 13.0 WNW 21 32 993.9 - 2.4 - Partly cloudy 5 - - - -
29/02:38pm 12.9 WNW 21 28 994.1 - 2.2 - Partly cloudy 5 - - - -
29/02:30pm 13.2 WNW 20 27 994.1 - 2.0 - Partly cloudy 10 - - - -
29/02:09pm 12.9 WNW 19 31 994.6 - 2.0 - Partly cloudy 10 - - - -
29/02:00pm 12.6 WNW 21 29 994.6 - 2.0 - Partly cloudy 10 - - - -
29/01:55pm 12.5 WNW 22 29 994.6 - 2.0 - Partly cloudy 10 - - - -
29/01:36pm 12.1 WNW 18 25 995.1 - 2.0 - Partly cloudy 5 - - - -
29/01:30pm 12.3 WNW 18 23 995.2 - 1.8 - Partly cloudy 7 - - - -
29/01:23pm 12.1 WNW 18 24 995.2 - 1.8 - Partly cloudy 8 - - - -
29/01:04pm 11.9 WNW 17 26 995.7 - 1.4 - Partly cloudy 5 - - - -
29/01:00pm 11.9 WNW 16 23 995.7 - 1.4 - Partly cloudy 8 - - - -
29/12:58pm 11.9 WNW 16 26 995.7 - 1.4 - Partly cloudy 9 - - - -
29/12:30pm 11.7 W 18 25 996.0 - 1.4 - Partly cloudy 10 - - - -
29/12:00pm 12.0 W 21 33 996.2 - 1.4 Recent precip. Cloudy 10 - - - -
29/11:57am 11.8 W 22 33 996.2 - 1.4 - Partly cloudy 10 - - - -
29/11:47am 12.3 WSW 20 28 996.1 - 1.2 - Partly cloudy 5 - - - -
29/11:34am 13.1 WNW 21 32 995.7 - 0.8 - Partly cloudy 5 - - - -
29/11:30am 13.7 WNW 22 32 995.6 - 0.4 - Partly cloudy 10 - - - -
29/11:00am 13.5 WNW 19 32 996.0 - 0.4 - Partly cloudy 9 - - - -
29/10:45am 13.5 WNW 15 26 996.2 - 0.4 - Partly cloudy 9 - - - -
29/10:30am 13.4 WNW 16 23 996.3 - 0.4 - Partly cloudy 10 - - - -
29/10:00am 13.6 WNW 23 35 996.5 - 0.4 - Partly cloudy 10 - - - -
29/09:30am 13.6 WNW 23 39 996.4 - 0.4 - Partly cloudy 9 - - - -
29/09:27am 13.4 WNW 21 31 996.4 - 0.4 - Partly cloudy 9 - - - -
29/09:10am 12.9 WNW 21 31 996.5 - 0.2 - Partly cloudy 5 - - - -
29/09:00am 13.4 WNW 23 34 996.7 - 42.6 Recent precip. Cloudy 8 - - - -
29/08:59am 13.4 WNW 23 34 996.7 - 42.6 - Partly cloudy 8 - - - -
29/08:49am 13.1 WNW 22 31 996.6 - 42.6 - Partly cloudy 6 - - - -
29/08:30am 12.7 WNW 29 40 996.6 - 42.4 - Partly cloudy 3 - - - -
29/08:23am 12.8 WNW 23 40 996.6 - 41.4 - Partly cloudy 5 - - - -
29/08:07am 13.1 WNW 21 33 996.9 - 41.0 - Partly cloudy 10 - - - -
29/08:01am 13.0 WNW 26 37 996.9 - 41.0 - Partly cloudy 10 - - - -
29/08:00am 13.0 WNW 26 37 996.9 - 41.0 - Partly cloudy 10 - - - -
29/07:59am 13.1 WNW 27 37 996.8 - 41.0 - Partly cloudy 10 - - - -
29/07:54am 12.9 WNW 30 37 996.6 - 41.0 - Partly cloudy 7 - - - -
29/07:35am 11.9 WNW 19 29 996.7 - 39.6 - Partly cloudy 2 - - - -
29/07:30am 11.5 WNW 21 30 996.6 - 38.6 - Partly cloudy 4 - - - -
29/07:14am 11.5 WNW 28 38 997.0 - 34.4 - Partly cloudy 1 - - - -
29/07:12am 11.8 WNW 31 38 996.6 - 32.2 - Partly cloudy 2 - - - -
29/07:00am 12.4 NW 20 30 996.8 - 27.8 - Partly cloudy 2 - - - -
29/06:59am 12.5 NW 19 28 997.0 - 27.2 - Partly cloudy 3 - - - -
29/06:49am 12.7 NW 23 40 996.9 - 25.2 - Partly cloudy 5 - - - -
29/06:39am 12.8 NW 22 43 996.4 - 25.0 - Partly cloudy 4 - - - -
29/06:30am 12.6 NW 20 32 997.0 - 24.2 - Partly cloudy 5 - - - -
29/06:23am 12.5 NW 16 32 997.2 - 23.8 - Partly cloudy 5 - - - -
29/06:18am 12.3 NW 16 24 997.1 - 23.8 - Partly cloudy 5 - - - -
29/06:04am 12.4 NW 18 26 997.8 - 23.0 - Partly cloudy 4 - - - -
29/06:00am 12.3 NW 20 31 998.0 - 22.8 Rain Cloudy 3 - - - -
29/05:47am 12.5 NW 21 34 998.1 - 21.2 - Partly cloudy 4 - - - -
29/05:41am 12.5 NW 20 27 997.9 - 20.6 - Partly cloudy 2 - - - -
29/05:38am 12.1 W 18 27 998.0 - 20.4 - Partly cloudy 2 - - - -
29/05:35am 12.0 W 17 27 997.7 - 20.2 - Partly cloudy 2 - - - -
29/05:30am 12.4 NW 17 25 997.4 - 18.4 - Partly cloudy 4 - - - -
29/05:15am 12.6 NW 20 30 998.4 - 16.6 - Partly cloudy 5 - - - -
29/05:01am 12.5 NW 19 29 998.5 - 16.4 - Partly cloudy 8 - - - -
29/05:00am 12.5 NW 19 29 998.5 - 16.4 - Partly cloudy 9 - - - -
29/04:39am 12.5 NW 21 31 999.0 - 16.2 - Partly cloudy 8 - - - -
29/04:33am 12.5 NW 22 31 999.1 - 16.2 - Partly cloudy 8 - - - -
29/04:30am 12.5 NW 21 31 999.0 - 16.2 - Partly cloudy 8 - - - -
29/04:13am 11.9 NW 19 32 999.3 - 16.0 - Partly cloudy 2 - - - -
29/04:11am 11.9 NW 18 27 999.3 - 14.4 - Partly cloudy 2 - - - -
29/04:03am 12.1 NW 18 28 999.6 - 11.6 - Partly cloudy 4 - - - -
29/04:01am 12.2 NW 19 28 999.6 - 11.4 - Partly cloudy 4 - - - -
29/04:00am 12.2 NW 19 28 999.7 - 11.4 - Partly cloudy 5 - - - -
29/03:49am 12.2 NW 15 22 999.9 - 10.4 - Partly cloudy 5 - - - -
29/03:47am 12.2 NW 15 22 999.9 - 10.4 - Partly cloudy 5 - - - -
29/03:44am 12.2 NW 15 22 999.9 - 9.6 - Partly cloudy 8 - - - -
29/03:43am 12.2 NW 16 22 999.9 - 9.6 - Partly cloudy 7 - - - -
29/03:31am 12.4 NW 19 26 1000.0 - 9.6 - Partly cloudy 5 - - - -
29/03:30am 12.4 NW 18 26 1000.0 - 9.6 - Partly cloudy 6 - - - -
29/03:22am 12.6 NW 18 28 1000.2 - 9.4 - Partly cloudy 8 - - - -
29/03:20am 12.6 NW 18 28 1000.2 - 9.4 - Partly cloudy 9 - - - -
29/03:00am 12.4 NW 15 26 1000.6 - 9.4 Recent precip. Cloudy 10 - - - -
29/02:39am 12.4 NW 15 26 1001.3 - 9.4 - Partly cloudy 10 - - - -
29/02:30am 12.3 NW 16 23 1001.4 - 9.4 - Partly cloudy 10 - - - -
29/02:25am 12.3 NW 15 23 1001.5 - 9.4 - Partly cloudy 10 - - - -
29/02:14am 12.0 NW 16 23 1001.9 - 9.2 - Partly cloudy 5 - - - -
29/02:13am 12.0 NW 16 23 1001.9 - 9.2 - Partly cloudy 5 - - - -
29/02:07am 12.2 NW 16 21 1002.1 - 9.2 - Partly cloudy 5 - - - -
29/02:00am 12.3 NW 15 25 1002.3 - 9.0 - Partly cloudy 9 - - - -
29/01:56am 12.4 NW 15 25 1002.2 - 9.0 - Partly cloudy 10 - - - -
29/01:52am 12.4 NW 16 25 1002.1 - 9.0 - Partly cloudy 10 - - - -
29/01:30am 12.0 NW 16 23 1002.5 - 9.0 - Partly cloudy 9 - - - -
29/01:11am 12.3 NW 18 28 1002.7 - 8.4 - Partly cloudy 10 - - - -
29/01:00am 12.0 NW 16 24 1003.0 - 8.4 - Partly cloudy 9 - - - -
29/12:30am 11.4 NW 15 23 1003.6 - 8.4 - Partly cloudy 9 - - - -
29/12:00am 11.1 NW 10 17 1004.1 - 8.2 Rain Cloudy 10 - - - -
 
Date/Time
EST
Temp

°C
Wind Pressure Rain
since 9am
mm
Weather Cloud Vis
km
Sea
Height
m
Swell
Dir
 
Speed
knots
Gust
knots
hPa Trend Height
m
Period
s
Dir
28/11:30pm 11.1 NW 11 19 1004.4 - 7.6 - Partly cloudy 10 - - - -
28/11:00pm 11.9 W 10 14 1004.7 - 7.0 - Partly cloudy 9 - - - -
28/10:38pm 12.2 WNW 15 23 1005.0 - 6.6 - Partly cloudy 10 - - - -
28/10:30pm 12.1 W 15 23 1005.0 - 6.6 - Partly cloudy 10 - - - -
28/10:25pm 12.0 NW 17 21 1004.8 - 6.6 - Partly cloudy 10 - - - -
28/10:00pm 9.9 S 4 6 1005.2 - 6.6 - Partly cloudy 10 - - - -
28/09:59pm 9.9 S 4 6 1005.1 - 6.6 - Partly cloudy 10 - - - -
28/09:30pm 9.7 S 1 5 1005.3 - 6.4 - Partly cloudy 10 - - - -
28/09:07pm 9.6 SSE 5 5 1005.6 - 6.4 - Partly cloudy 10 - - - -
28/09:00pm 9.5 S 5 6 1005.8 - 6.4 - Cloudy 10 - - - -
28/08:54pm 9.6 S 4 6 1005.8 - 6.4 - Partly cloudy 10 - - - -
28/08:30pm 9.9 N 1 4 1005.9 - 6.4 - Partly cloudy 9 - - - -
28/08:00pm 9.8 WSW 1 3 1006.1 - 6.4 - Partly cloudy 10 - - - -
28/07:30pm 9.7 WSW 5 7 1006.3 - 6.4 - Partly cloudy 10 - - - -
28/07:00pm 9.7 W 4 5 1006.7 - 6.4 - Partly cloudy 10 - - - -
28/06:31pm 10.5 W 14 19 1006.3 - 6.4 - Partly cloudy 10 - - - -
28/06:30pm 10.5 W 14 19 1006.3 - 6.4 - Partly cloudy 10 - - - -
28/06:20pm 10.6 W 19 23 1006.2 - 6.4 - Partly cloudy 5 - - - -
28/06:16pm 10.8 WNW 30 41 1006.2 - 6.4 - Partly cloudy 5 - - - -
28/06:15pm 10.9 WNW 30 41 1006.3 - 6.2 - Partly cloudy 6 - - - -
28/06:14pm 11.0 WNW 32 41 1006.3 - 6.2 - Partly cloudy 7 - - - -
28/06:13pm 11.1 WNW 18 41 1006.4 - 6.2 - Partly cloudy 9 - - - -
28/06:00pm 11.5 WNW 13 20 1005.9 - 5.8 Recent precip. Cloudy 10 - - - -
28/05:30pm 12.4 WNW 16 20 1006.1 - 5.8 - Partly cloudy 10 - - - -

Other Formats:

Comma delimited format used in spreadsheet applications
http://www.bom.gov.au/fwo/IDT60701/IDT60701.95957.axf

JavaScript Object Notation format (JSON) in row-major order
http://www.bom.gov.au/fwo/IDT60701/IDT60701.95957.json